sensor_id;sensor_type;location;lat;lon;timestamp;P1;durP1;ratioP1;P2;durP2;ratioP2
52554;SDS011;38455;52.710;6.502;2024-02-21T00:02:10;20.38;;;8.07;;
52554;SDS011;38455;52.710;6.502;2024-02-21T00:04:36;21.08;;;8.02;;
52554;SDS011;38455;52.710;6.502;2024-02-21T00:07:03;19.25;;;7.28;;
52554;SDS011;38455;52.710;6.502;2024-02-21T00:09:29;29.85;;;7.78;;
52554;SDS011;38455;52.710;6.502;2024-02-21T00:11:55;17.42;;;6.32;;
52554;SDS011;38455;52.710;6.502;2024-02-21T00:14:21;19.73;;;6.32;;
52554;SDS011;38455;52.710;6.502;2024-02-21T00:16:46;17.42;;;6.30;;
52554;SDS011;38455;52.710;6.502;2024-02-21T00:19:12;19.48;;;6.15;;
52554;SDS011;38455;52.710;6.502;2024-02-21T00:21:39;14.60;;;6.18;;
52554;SDS011;38455;52.710;6.502;2024-02-21T00:24:05;16.55;;;5.65;;
52554;SDS011;38455;52.710;6.502;2024-02-21T00:26:31;13.38;;;5.95;;
52554;SDS011;38455;52.710;6.502;2024-02-21T00:28:57;17.67;;;4.85;;
52554;SDS011;38455;52.710;6.502;2024-02-21T00:31:22;15.98;;;5.65;;
52554;SDS011;38455;52.710;6.502;2024-02-21T00:33:48;19.35;;;5.32;;
52554;SDS011;38455;52.710;6.502;2024-02-21T00:36:14;15.93;;;4.80;;
52554;SDS011;38455;52.710;6.502;2024-02-21T00:38:40;16.15;;;4.60;;
52554;SDS011;38455;52.710;6.502;2024-02-21T00:41:06;20.00;;;6.43;;
52554;SDS011;38455;52.710;6.502;2024-02-21T00:43:31;20.65;;;5.35;;
52554;SDS011;38455;52.710;6.502;2024-02-21T00:45:57;18.27;;;5.00;;
52554;SDS011;38455;52.710;6.502;2024-02-21T00:48:23;13.48;;;4.40;;
52554;SDS011;38455;52.710;6.502;2024-02-21T00:50:49;18.73;;;5.85;;
52554;SDS011;38455;52.710;6.502;2024-02-21T00:53:14;23.77;;;4.90;;
52554;SDS011;38455;52.710;6.502;2024-02-21T00:55:40;15.30;;;4.05;;
52554;SDS011;38455;52.710;6.502;2024-02-21T00:58:06;24.63;;;5.65;;
52554;SDS011;38455;52.710;6.502;2024-02-21T01:00:31;14.55;;;5.10;;
52554;SDS011;38455;52.710;6.502;2024-02-21T01:02:57;17.90;;;4.65;;
52554;SDS011;38455;52.710;6.502;2024-02-21T01:05:23;17.33;;;5.15;;
52554;SDS011;38455;52.710;6.502;2024-02-21T01:07:48;19.65;;;5.18;;
52554;SDS011;38455;52.710;6.502;2024-02-21T01:10:14;18.67;;;4.65;;
52554;SDS011;38455;52.710;6.502;2024-02-21T01:12:40;14.13;;;5.13;;
52554;SDS011;38455;52.710;6.502;2024-02-21T01:15:05;18.45;;;5.80;;
52554;SDS011;38455;52.710;6.502;2024-02-21T01:17:31;27.30;;;5.30;;
52554;SDS011;38455;52.710;6.502;2024-02-21T01:19:57;23.17;;;5.25;;
52554;SDS011;38455;52.710;6.502;2024-02-21T01:22:23;21.08;;;5.57;;
52554;SDS011;38455;52.710;6.502;2024-02-21T01:24:48;21.17;;;5.13;;
52554;SDS011;38455;52.710;6.502;2024-02-21T01:27:14;21.98;;;5.35;;
52554;SDS011;38455;52.710;6.502;2024-02-21T01:29:40;20.25;;;5.53;;
52554;SDS011;38455;52.710;6.502;2024-02-21T01:32:05;19.98;;;5.05;;
52554;SDS011;38455;52.710;6.502;2024-02-21T01:34:31;23.02;;;5.78;;
52554;SDS011;38455;52.710;6.502;2024-02-21T01:36:57;20.73;;;4.97;;
52554;SDS011;38455;52.710;6.502;2024-02-21T01:39:22;21.25;;;4.70;;
52554;SDS011;38455;52.710;6.502;2024-02-21T01:41:48;24.85;;;5.90;;
52554;SDS011;38455;52.710;6.502;2024-02-21T01:44:14;25.00;;;6.15;;
52554;SDS011;38455;52.710;6.502;2024-02-21T01:46:39;21.65;;;6.10;;
52554;SDS011;38455;52.710;6.502;2024-02-21T01:49:05;30.63;;;6.15;;
52554;SDS011;38455;52.710;6.502;2024-02-21T01:51:31;20.15;;;5.75;;
52554;SDS011;38455;52.710;6.502;2024-02-21T01:53:57;23.30;;;5.93;;
52554;SDS011;38455;52.710;6.502;2024-02-21T01:56:23;24.27;;;6.20;;
52554;SDS011;38455;52.710;6.502;2024-02-21T01:58:49;18.10;;;5.15;;
52554;SDS011;38455;52.710;6.502;2024-02-21T02:01:16;26.80;;;6.88;;
52554;SDS011;38455;52.710;6.502;2024-02-21T02:03:42;21.85;;;6.40;;
52554;SDS011;38455;52.710;6.502;2024-02-21T02:06:10;22.05;;;6.85;;
52554;SDS011;38455;52.710;6.502;2024-02-21T02:08:35;14.23;;;5.80;;
52554;SDS011;38455;52.710;6.502;2024-02-21T02:11:02;22.20;;;6.97;;
52554;SDS011;38455;52.710;6.502;2024-02-21T02:13:28;25.55;;;7.00;;
52554;SDS011;38455;52.710;6.502;2024-02-21T02:15:54;24.73;;;7.55;;
52554;SDS011;38455;52.710;6.502;2024-02-21T02:18:20;21.10;;;7.07;;
52554;SDS011;38455;52.710;6.502;2024-02-21T02:20:46;27.05;;;8.65;;
52554;SDS011;38455;52.710;6.502;2024-02-21T02:23:33;28.45;;;8.93;;
52554;SDS011;38455;52.710;6.502;2024-02-21T02:25:58;26.38;;;8.02;;
52554;SDS011;38455;52.710;6.502;2024-02-21T02:28:24;39.30;;;9.57;;
52554;SDS011;38455;52.710;6.502;2024-02-21T02:30:50;33.20;;;8.38;;
52554;SDS011;38455;52.710;6.502;2024-02-21T02:33:16;30.30;;;9.63;;
52554;SDS011;38455;52.710;6.502;2024-02-21T02:35:45;30.40;;;9.13;;
52554;SDS011;38455;52.710;6.502;2024-02-21T02:38:11;28.20;;;9.60;;
52554;SDS011;38455;52.710;6.502;2024-02-21T02:40:37;27.17;;;10.23;;
52554;SDS011;38455;52.710;6.502;2024-02-21T02:43:04;31.88;;;10.20;;
52554;SDS011;38455;52.710;6.502;2024-02-21T02:45:30;31.40;;;10.20;;
52554;SDS011;38455;52.710;6.502;2024-02-21T02:47:56;31.15;;;10.35;;
52554;SDS011;38455;52.710;6.502;2024-02-21T02:50:22;35.13;;;10.00;;
52554;SDS011;38455;52.710;6.502;2024-02-21T02:52:49;28.42;;;10.57;;
52554;SDS011;38455;52.710;6.502;2024-02-21T02:55:14;31.00;;;10.13;;
52554;SDS011;38455;52.710;6.502;2024-02-21T02:57:40;29.25;;;10.85;;
52554;SDS011;38455;52.710;6.502;2024-02-21T03:00:12;32.65;;;10.57;;
52554;SDS011;38455;52.710;6.502;2024-02-21T03:02:40;35.97;;;10.43;;
52554;SDS011;38455;52.710;6.502;2024-02-21T03:07:41;32.83;;;10.63;;
52554;SDS011;38455;52.710;6.502;2024-02-21T03:10:07;29.80;;;9.98;;
52554;SDS011;38455;52.710;6.502;2024-02-21T03:12:33;29.67;;;10.25;;
52554;SDS011;38455;52.710;6.502;2024-02-21T03:14:59;43.65;;;11.18;;
52554;SDS011;38455;52.710;6.502;2024-02-21T03:17:24;33.20;;;9.55;;
52554;SDS011;38455;52.710;6.502;2024-02-21T03:19:52;35.95;;;10.63;;
52554;SDS011;38455;52.710;6.502;2024-02-21T03:22:18;39.45;;;10.38;;
52554;SDS011;38455;52.710;6.502;2024-02-21T03:24:44;33.95;;;11.18;;
52554;SDS011;38455;52.710;6.502;2024-02-21T03:27:09;39.80;;;10.70;;
52554;SDS011;38455;52.710;6.502;2024-02-21T03:29:35;34.05;;;10.98;;
52554;SDS011;38455;52.710;6.502;2024-02-21T03:32:01;41.53;;;10.25;;
52554;SDS011;38455;52.710;6.502;2024-02-21T03:34:27;25.40;;;9.18;;
52554;SDS011;38455;52.710;6.502;2024-02-21T03:36:52;37.67;;;10.80;;
52554;SDS011;38455;52.710;6.502;2024-02-21T03:39:18;33.67;;;10.55;;
52554;SDS011;38455;52.710;6.502;2024-02-21T03:41:43;41.65;;;10.35;;
52554;SDS011;38455;52.710;6.502;2024-02-21T03:44:09;28.33;;;9.48;;
52554;SDS011;38455;52.710;6.502;2024-02-21T03:46:35;30.10;;;9.85;;
52554;SDS011;38455;52.710;6.502;2024-02-21T03:49:00;35.08;;;9.95;;
52554;SDS011;38455;52.710;6.502;2024-02-21T03:51:26;34.85;;;10.68;;
52554;SDS011;38455;52.710;6.502;2024-02-21T03:53:52;39.05;;;9.77;;
52554;SDS011;38455;52.710;6.502;2024-02-21T03:56:18;25.73;;;10.75;;
52554;SDS011;38455;52.710;6.502;2024-02-21T03:58:43;36.40;;;10.23;;
52554;SDS011;38455;52.710;6.502;2024-02-21T04:01:09;38.17;;;9.73;;
52554;SDS011;38455;52.710;6.502;2024-02-21T04:03:34;38.78;;;9.90;;
52554;SDS011;38455;52.710;6.502;2024-02-21T04:06:00;28.00;;;9.77;;
52554;SDS011;38455;52.710;6.502;2024-02-21T04:08:26;28.25;;;9.10;;
52554;SDS011;38455;52.710;6.502;2024-02-21T04:10:51;44.22;;;10.38;;
52554;SDS011;38455;52.710;6.502;2024-02-21T04:13:17;25.20;;;9.00;;
52554;SDS011;38455;52.710;6.502;2024-02-21T04:15:43;27.02;;;9.25;;
52554;SDS011;38455;52.710;6.502;2024-02-21T04:18:09;27.75;;;8.70;;
52554;SDS011;38455;52.710;6.502;2024-02-21T04:20:34;25.13;;;8.80;;
52554;SDS011;38455;52.710;6.502;2024-02-21T04:23:00;29.67;;;8.30;;
52554;SDS011;38455;52.710;6.502;2024-02-21T04:25:26;38.05;;;9.98;;
52554;SDS011;38455;52.710;6.502;2024-02-21T04:27:52;39.60;;;9.55;;
52554;SDS011;38455;52.710;6.502;2024-02-21T04:30:17;33.88;;;11.05;;
52554;SDS011;38455;52.710;6.502;2024-02-21T04:32:43;28.25;;;9.15;;
52554;SDS011;38455;52.710;6.502;2024-02-21T04:35:09;25.08;;;8.63;;
52554;SDS011;38455;52.710;6.502;2024-02-21T04:37:34;31.38;;;9.02;;
52554;SDS011;38455;52.710;6.502;2024-02-21T04:40:00;31.75;;;9.50;;
52554;SDS011;38455;52.710;6.502;2024-02-21T04:42:26;26.98;;;8.52;;
52554;SDS011;38455;52.710;6.502;2024-02-21T04:44:52;33.83;;;9.45;;
52554;SDS011;38455;52.710;6.502;2024-02-21T04:47:18;31.33;;;8.95;;
52554;SDS011;38455;52.710;6.502;2024-02-21T04:49:45;32.50;;;9.45;;
52554;SDS011;38455;52.710;6.502;2024-02-21T04:52:11;32.75;;;9.07;;
52554;SDS011;38455;52.710;6.502;2024-02-21T04:54:37;26.25;;;8.48;;
52554;SDS011;38455;52.710;6.502;2024-02-21T04:57:03;34.05;;;8.75;;
52554;SDS011;38455;52.710;6.502;2024-02-21T04:59:29;35.58;;;8.73;;
52554;SDS011;38455;52.710;6.502;2024-02-21T05:01:55;33.75;;;8.68;;
52554;SDS011;38455;52.710;6.502;2024-02-21T05:04:20;36.00;;;9.00;;
52554;SDS011;38455;52.710;6.502;2024-02-21T05:06:46;34.03;;;9.25;;
52554;SDS011;38455;52.710;6.502;2024-02-21T05:09:12;31.10;;;9.73;;
52554;SDS011;38455;52.710;6.502;2024-02-21T05:11:38;31.83;;;9.43;;
52554;SDS011;38455;52.710;6.502;2024-02-21T05:14:03;33.42;;;9.05;;
52554;SDS011;38455;52.710;6.502;2024-02-21T05:16:30;35.30;;;7.63;;
52554;SDS011;38455;52.710;6.502;2024-02-21T05:18:56;31.75;;;7.95;;
52554;SDS011;38455;52.710;6.502;2024-02-21T05:21:25;32.08;;;8.73;;
52554;SDS011;38455;52.710;6.502;2024-02-21T05:23:53;26.77;;;7.85;;
52554;SDS011;38455;52.710;6.502;2024-02-21T05:26:22;29.60;;;9.15;;
52554;SDS011;38455;52.710;6.502;2024-02-21T05:28:48;32.60;;;9.27;;
52554;SDS011;38455;52.710;6.502;2024-02-21T05:31:15;33.17;;;8.98;;
52554;SDS011;38455;52.710;6.502;2024-02-21T05:33:42;36.67;;;9.73;;
52554;SDS011;38455;52.710;6.502;2024-02-21T05:36:12;23.00;;;8.60;;
52554;SDS011;38455;52.710;6.502;2024-02-21T05:38:38;26.75;;;7.72;;
52554;SDS011;38455;52.710;6.502;2024-02-21T05:41:04;26.15;;;7.97;;
52554;SDS011;38455;52.710;6.502;2024-02-21T05:43:30;32.10;;;8.52;;
52554;SDS011;38455;52.710;6.502;2024-02-21T05:45:56;29.00;;;8.68;;
52554;SDS011;38455;52.710;6.502;2024-02-21T05:48:22;26.27;;;9.57;;
52554;SDS011;38455;52.710;6.502;2024-02-21T05:50:48;16.27;;;7.60;;
52554;SDS011;38455;52.710;6.502;2024-02-21T05:53:14;26.98;;;8.38;;
52554;SDS011;38455;52.710;6.502;2024-02-21T05:55:40;36.33;;;9.77;;
52554;SDS011;38455;52.710;6.502;2024-02-21T05:58:06;34.08;;;10.13;;
52554;SDS011;38455;52.710;6.502;2024-02-21T06:00:32;34.15;;;11.15;;
52554;SDS011;38455;52.710;6.502;2024-02-21T06:02:58;34.30;;;10.93;;
52554;SDS011;38455;52.710;6.502;2024-02-21T06:05:24;38.03;;;10.85;;
52554;SDS011;38455;52.710;6.502;2024-02-21T06:07:50;34.72;;;11.95;;
52554;SDS011;38455;52.710;6.502;2024-02-21T06:10:16;32.60;;;12.10;;
52554;SDS011;38455;52.710;6.502;2024-02-21T06:12:42;26.52;;;11.98;;
52554;SDS011;38455;52.710;6.502;2024-02-21T06:15:07;42.22;;;12.50;;
52554;SDS011;38455;52.710;6.502;2024-02-21T06:17:33;34.70;;;13.65;;
52554;SDS011;38455;52.710;6.502;2024-02-21T06:19:59;31.15;;;12.48;;
52554;SDS011;38455;52.710;6.502;2024-02-21T06:22:25;32.65;;;13.13;;
52554;SDS011;38455;52.710;6.502;2024-02-21T06:24:50;36.22;;;14.07;;
52554;SDS011;38455;52.710;6.502;2024-02-21T06:27:16;37.53;;;12.60;;
52554;SDS011;38455;52.710;6.502;2024-02-21T06:29:42;33.75;;;12.80;;
52554;SDS011;38455;52.710;6.502;2024-02-21T06:32:08;36.85;;;14.07;;
52554;SDS011;38455;52.710;6.502;2024-02-21T06:34:33;44.60;;;13.77;;
52554;SDS011;38455;52.710;6.502;2024-02-21T06:36:59;40.50;;;14.15;;
52554;SDS011;38455;52.710;6.502;2024-02-21T06:39:25;37.45;;;13.80;;
52554;SDS011;38455;52.710;6.502;2024-02-21T06:41:51;32.08;;;13.57;;
52554;SDS011;38455;52.710;6.502;2024-02-21T06:44:17;29.20;;;13.18;;
52554;SDS011;38455;52.710;6.502;2024-02-21T06:46:43;34.10;;;13.63;;
52554;SDS011;38455;52.710;6.502;2024-02-21T06:49:09;31.80;;;13.65;;
52554;SDS011;38455;52.710;6.502;2024-02-21T06:51:40;30.88;;;13.57;;
52554;SDS011;38455;52.710;6.502;2024-02-21T06:54:09;32.10;;;13.48;;
52554;SDS011;38455;52.710;6.502;2024-02-21T06:56:35;30.15;;;14.18;;
52554;SDS011;38455;52.710;6.502;2024-02-21T06:59:01;29.63;;;14.02;;
52554;SDS011;38455;52.710;6.502;2024-02-21T07:01:30;33.85;;;13.80;;
52554;SDS011;38455;52.710;6.502;2024-02-21T07:03:56;37.55;;;13.38;;
52554;SDS011;38455;52.710;6.502;2024-02-21T07:06:22;32.55;;;13.65;;
52554;SDS011;38455;52.710;6.502;2024-02-21T07:08:48;37.80;;;15.38;;
52554;SDS011;38455;52.710;6.502;2024-02-21T07:11:13;35.00;;;15.23;;
52554;SDS011;38455;52.710;6.502;2024-02-21T07:13:39;27.80;;;13.98;;
52554;SDS011;38455;52.710;6.502;2024-02-21T07:16:05;31.27;;;13.48;;
52554;SDS011;38455;52.710;6.502;2024-02-21T07:18:31;27.70;;;13.95;;
52554;SDS011;38455;52.710;6.502;2024-02-21T07:20:57;28.13;;;13.25;;
52554;SDS011;38455;52.710;6.502;2024-02-21T07:23:23;36.35;;;14.20;;
52554;SDS011;38455;52.710;6.502;2024-02-21T07:25:49;35.13;;;13.93;;
52554;SDS011;38455;52.710;6.502;2024-02-21T07:28:15;26.30;;;12.32;;
52554;SDS011;38455;52.710;6.502;2024-02-21T07:30:41;31.70;;;14.43;;
52554;SDS011;38455;52.710;6.502;2024-02-21T07:33:07;26.48;;;12.75;;
52554;SDS011;38455;52.710;6.502;2024-02-21T07:35:33;24.63;;;13.82;;
52554;SDS011;38455;52.710;6.502;2024-02-21T07:37:59;28.30;;;13.88;;
52554;SDS011;38455;52.710;6.502;2024-02-21T07:40:24;26.58;;;15.13;;
52554;SDS011;38455;52.710;6.502;2024-02-21T07:42:50;30.00;;;14.98;;
52554;SDS011;38455;52.710;6.502;2024-02-21T07:45:16;27.08;;;14.57;;
52554;SDS011;38455;52.710;6.502;2024-02-21T07:47:43;28.15;;;14.90;;
52554;SDS011;38455;52.710;6.502;2024-02-21T07:50:09;34.85;;;16.13;;
52554;SDS011;38455;52.710;6.502;2024-02-21T07:52:35;26.73;;;14.43;;
52554;SDS011;38455;52.710;6.502;2024-02-21T07:55:00;25.65;;;14.27;;
52554;SDS011;38455;52.710;6.502;2024-02-21T07:57:26;33.88;;;16.85;;
52554;SDS011;38455;52.710;6.502;2024-02-21T07:59:51;28.58;;;15.55;;
52554;SDS011;38455;52.710;6.502;2024-02-21T08:02:17;34.70;;;16.40;;
52554;SDS011;38455;52.710;6.502;2024-02-21T08:04:43;34.78;;;17.58;;
52554;SDS011;38455;52.710;6.502;2024-02-21T08:07:09;28.02;;;15.38;;
52554;SDS011;38455;52.710;6.502;2024-02-21T08:09:35;30.33;;;16.33;;
52554;SDS011;38455;52.710;6.502;2024-02-21T08:12:03;33.20;;;17.15;;
52554;SDS011;38455;52.710;6.502;2024-02-21T08:14:29;27.45;;;16.60;;
52554;SDS011;38455;52.710;6.502;2024-02-21T08:16:55;26.17;;;15.85;;
52554;SDS011;38455;52.710;6.502;2024-02-21T08:19:21;32.55;;;16.30;;
52554;SDS011;38455;52.710;6.502;2024-02-21T08:21:47;29.75;;;16.10;;
52554;SDS011;38455;52.710;6.502;2024-02-21T08:24:16;35.75;;;17.30;;
52554;SDS011;38455;52.710;6.502;2024-02-21T08:26:41;28.52;;;15.98;;
52554;SDS011;38455;52.710;6.502;2024-02-21T08:29:09;29.02;;;15.98;;
52554;SDS011;38455;52.710;6.502;2024-02-21T08:31:35;28.73;;;17.80;;
52554;SDS011;38455;52.710;6.502;2024-02-21T08:34:01;28.75;;;16.00;;
52554;SDS011;38455;52.710;6.502;2024-02-21T08:36:33;37.65;;;17.35;;
52554;SDS011;38455;52.710;6.502;2024-02-21T08:38:59;32.03;;;16.70;;
52554;SDS011;38455;52.710;6.502;2024-02-21T08:41:26;30.00;;;16.45;;
52554;SDS011;38455;52.710;6.502;2024-02-21T08:43:52;29.67;;;17.98;;
52554;SDS011;38455;52.710;6.502;2024-02-21T08:46:21;35.45;;;17.23;;
52554;SDS011;38455;52.710;6.502;2024-02-21T08:48:47;31.77;;;16.60;;
52554;SDS011;38455;52.710;6.502;2024-02-21T08:51:13;31.88;;;17.98;;
52554;SDS011;38455;52.710;6.502;2024-02-21T08:53:39;32.60;;;17.02;;
52554;SDS011;38455;52.710;6.502;2024-02-21T08:56:05;31.00;;;17.67;;
52554;SDS011;38455;52.710;6.502;2024-02-21T08:58:31;35.47;;;17.58;;
52554;SDS011;38455;52.710;6.502;2024-02-21T09:00:56;34.03;;;17.85;;
52554;SDS011;38455;52.710;6.502;2024-02-21T09:03:22;31.25;;;17.48;;
52554;SDS011;38455;52.710;6.502;2024-02-21T09:05:48;32.08;;;17.67;;
52554;SDS011;38455;52.710;6.502;2024-02-21T09:08:14;33.83;;;16.60;;
52554;SDS011;38455;52.710;6.502;2024-02-21T09:10:40;34.00;;;17.42;;
52554;SDS011;38455;52.710;6.502;2024-02-21T09:13:05;28.35;;;16.20;;
52554;SDS011;38455;52.710;6.502;2024-02-21T09:15:33;34.85;;;18.50;;
52554;SDS011;38455;52.710;6.502;2024-02-21T09:17:58;31.42;;;17.50;;
52554;SDS011;38455;52.710;6.502;2024-02-21T09:20:24;29.55;;;17.10;;
52554;SDS011;38455;52.710;6.502;2024-02-21T09:22:50;27.63;;;16.27;;
52554;SDS011;38455;52.710;6.502;2024-02-21T09:25:17;30.80;;;16.58;;
52554;SDS011;38455;52.710;6.502;2024-02-21T09:27:43;33.15;;;16.05;;
52554;SDS011;38455;52.710;6.502;2024-02-21T09:30:09;33.85;;;18.00;;
52554;SDS011;38455;52.710;6.502;2024-02-21T09:32:35;32.70;;;16.33;;
52554;SDS011;38455;52.710;6.502;2024-02-21T09:35:01;28.65;;;16.20;;
52554;SDS011;38455;52.710;6.502;2024-02-21T09:37:27;27.05;;;16.52;;
52554;SDS011;38455;52.710;6.502;2024-02-21T09:39:53;34.35;;;16.60;;
52554;SDS011;38455;52.710;6.502;2024-02-21T09:42:20;29.77;;;15.25;;
52554;SDS011;38455;52.710;6.502;2024-02-21T09:44:47;22.95;;;14.25;;
52554;SDS011;38455;52.710;6.502;2024-02-21T09:47:22;25.90;;;14.35;;
52554;SDS011;38455;52.710;6.502;2024-02-21T09:49:56;24.30;;;13.70;;
52554;SDS011;38455;52.710;6.502;2024-02-21T09:52:23;24.52;;;14.18;;
52554;SDS011;38455;52.710;6.502;2024-02-21T09:54:51;25.52;;;14.23;;
52554;SDS011;38455;52.710;6.502;2024-02-21T09:57:18;25.40;;;13.50;;
52554;SDS011;38455;52.710;6.502;2024-02-21T09:59:44;32.22;;;13.52;;
52554;SDS011;38455;52.710;6.502;2024-02-21T10:02:11;24.80;;;11.98;;
52554;SDS011;38455;52.710;6.502;2024-02-21T10:04:37;24.15;;;12.10;;
52554;SDS011;38455;52.710;6.502;2024-02-21T10:07:05;21.95;;;12.25;;
52554;SDS011;38455;52.710;6.502;2024-02-21T10:09:31;26.73;;;12.45;;
52554;SDS011;38455;52.710;6.502;2024-02-21T10:12:08;22.95;;;11.57;;
52554;SDS011;38455;52.710;6.502;2024-02-21T10:14:37;23.80;;;12.68;;
52554;SDS011;38455;52.710;6.502;2024-02-21T10:17:03;20.35;;;10.25;;
52554;SDS011;38455;52.710;6.502;2024-02-21T10:19:34;20.58;;;11.35;;
52554;SDS011;38455;52.710;6.502;2024-02-21T10:24:26;23.80;;;11.25;;
52554;SDS011;38455;52.710;6.502;2024-02-21T10:27:03;18.63;;;9.73;;
52554;SDS011;38455;52.710;6.502;2024-02-21T10:29:38;23.77;;;9.85;;
52554;SDS011;38455;52.710;6.502;2024-02-21T10:32:05;18.35;;;9.52;;
52554;SDS011;38455;52.710;6.502;2024-02-21T10:34:36;21.50;;;10.68;;
52554;SDS011;38455;52.710;6.502;2024-02-21T10:37:03;22.65;;;10.82;;
52554;SDS011;38455;52.710;6.502;2024-02-21T10:39:33;20.70;;;9.95;;
52554;SDS011;38455;52.710;6.502;2024-02-21T10:42:01;20.10;;;10.27;;
52554;SDS011;38455;52.710;6.502;2024-02-21T10:44:31;21.27;;;10.18;;
52554;SDS011;38455;52.710;6.502;2024-02-21T10:46:58;20.90;;;9.82;;
52554;SDS011;38455;52.710;6.502;2024-02-21T10:49:24;18.23;;;9.60;;
52554;SDS011;38455;52.710;6.502;2024-02-21T10:55:09;19.13;;;9.23;;
52554;SDS011;38455;52.710;6.502;2024-02-21T10:57:38;18.02;;;8.88;;
52554;SDS011;38455;52.710;6.502;2024-02-21T11:00:04;20.55;;;9.20;;
52554;SDS011;38455;52.710;6.502;2024-02-21T11:02:37;16.63;;;9.20;;
52554;SDS011;38455;52.710;6.502;2024-02-21T11:05:04;22.13;;;9.13;;
52554;SDS011;38455;52.710;6.502;2024-02-21T11:07:33;17.40;;;9.70;;
52554;SDS011;38455;52.710;6.502;2024-02-21T11:10:02;14.93;;;9.38;;
52554;SDS011;38455;52.710;6.502;2024-02-21T11:12:31;23.48;;;10.07;;
52554;SDS011;38455;52.710;6.502;2024-02-21T11:15:06;27.30;;;11.25;;
52554;SDS011;38455;52.710;6.502;2024-02-21T11:17:33;21.92;;;9.55;;
52554;SDS011;38455;52.710;6.502;2024-02-21T11:19:58;19.33;;;10.13;;
52554;SDS011;38455;52.710;6.502;2024-02-21T11:22:40;21.95;;;9.52;;
52554;SDS011;38455;52.710;6.502;2024-02-21T11:25:09;19.40;;;10.07;;
52554;SDS011;38455;52.710;6.502;2024-02-21T11:27:36;20.88;;;8.73;;
52554;SDS011;38455;52.710;6.502;2024-02-21T11:30:05;24.20;;;10.13;;
52554;SDS011;38455;52.710;6.502;2024-02-21T11:32:31;20.30;;;9.70;;
52554;SDS011;38455;52.710;6.502;2024-02-21T11:34:57;21.70;;;9.30;;
52554;SDS011;38455;52.710;6.502;2024-02-21T11:37:27;16.92;;;9.32;;
52554;SDS011;38455;52.710;6.502;2024-02-21T11:39:54;18.63;;;10.02;;
52554;SDS011;38455;52.710;6.502;2024-02-21T11:42:20;16.33;;;9.10;;
52554;SDS011;38455;52.710;6.502;2024-02-21T11:44:46;13.27;;;8.60;;
52554;SDS011;38455;52.710;6.502;2024-02-21T11:47:13;17.65;;;9.70;;
52554;SDS011;38455;52.710;6.502;2024-02-21T11:49:44;18.85;;;9.15;;
52554;SDS011;38455;52.710;6.502;2024-02-21T11:52:11;18.27;;;9.45;;
52554;SDS011;38455;52.710;6.502;2024-02-21T11:54:40;14.60;;;8.95;;
52554;SDS011;38455;52.710;6.502;2024-02-21T11:57:06;16.42;;;8.18;;
52554;SDS011;38455;52.710;6.502;2024-02-21T11:59:32;15.45;;;7.57;;
52554;SDS011;38455;52.710;6.502;2024-02-21T12:02:01;14.52;;;7.30;;
52554;SDS011;38455;52.710;6.502;2024-02-21T12:04:31;14.02;;;8.15;;
52554;SDS011;38455;52.710;6.502;2024-02-21T12:06:57;13.38;;;6.43;;
52554;SDS011;38455;52.710;6.502;2024-02-21T12:09:24;10.43;;;6.72;;
52554;SDS011;38455;52.710;6.502;2024-02-21T12:11:57;12.05;;;7.05;;
52554;SDS011;38455;52.710;6.502;2024-02-21T12:14:32;10.35;;;6.35;;
52554;SDS011;38455;52.710;6.502;2024-02-21T12:16:59;15.57;;;6.90;;
52554;SDS011;38455;52.710;6.502;2024-02-21T12:19:28;10.18;;;6.57;;
52554;SDS011;38455;52.710;6.502;2024-02-21T12:21:54;11.43;;;6.38;;
52554;SDS011;38455;52.710;6.502;2024-02-21T12:24:23;13.63;;;6.53;;
52554;SDS011;38455;52.710;6.502;2024-02-21T12:26:50;12.45;;;5.75;;
52554;SDS011;38455;52.710;6.502;2024-02-21T12:29:20;9.30;;;5.30;;
52554;SDS011;38455;52.710;6.502;2024-02-21T12:31:46;11.65;;;5.80;;
52554;SDS011;38455;52.710;6.502;2024-02-21T12:34:12;9.10;;;5.07;;
52554;SDS011;38455;52.710;6.502;2024-02-21T12:36:45;7.53;;;4.38;;
52554;SDS011;38455;52.710;6.502;2024-02-21T12:39:14;11.63;;;4.43;;
52554;SDS011;38455;52.710;6.502;2024-02-21T12:41:40;8.18;;;4.40;;
52554;SDS011;38455;52.710;6.502;2024-02-21T12:44:07;8.18;;;4.55;;
52554;SDS011;38455;52.710;6.502;2024-02-21T12:46:33;5.63;;;3.80;;
52554;SDS011;38455;52.710;6.502;2024-02-21T12:49:00;12.10;;;4.95;;
52554;SDS011;38455;52.710;6.502;2024-02-21T12:51:29;8.30;;;4.57;;
52554;SDS011;38455;52.710;6.502;2024-02-21T12:53:58;9.20;;;4.78;;
52554;SDS011;38455;52.710;6.502;2024-02-21T12:56:24;11.27;;;5.20;;
52554;SDS011;38455;52.710;6.502;2024-02-21T12:58:54;7.55;;;4.85;;
52554;SDS011;38455;52.710;6.502;2024-02-21T13:01:20;15.60;;;6.80;;
52554;SDS011;38455;52.710;6.502;2024-02-21T13:03:46;12.45;;;6.10;;
52554;SDS011;38455;52.710;6.502;2024-02-21T13:06:12;9.43;;;5.57;;
52554;SDS011;38455;52.710;6.502;2024-02-21T13:08:38;10.65;;;5.82;;
52554;SDS011;38455;52.710;6.502;2024-02-21T13:11:04;9.25;;;5.55;;
52554;SDS011;38455;52.710;6.502;2024-02-21T13:13:30;11.43;;;5.57;;
52554;SDS011;38455;52.710;6.502;2024-02-21T13:15:56;9.82;;;5.47;;
52554;SDS011;38455;52.710;6.502;2024-02-21T13:18:22;11.18;;;6.03;;
52554;SDS011;38455;52.710;6.502;2024-02-21T13:20:48;13.38;;;5.78;;
52554;SDS011;38455;52.710;6.502;2024-02-21T13:23:14;11.32;;;6.38;;
52554;SDS011;38455;52.710;6.502;2024-02-21T13:25:39;8.63;;;5.30;;
52554;SDS011;38455;52.710;6.502;2024-02-21T13:28:05;10.85;;;5.20;;
52554;SDS011;38455;52.710;6.502;2024-02-21T13:30:32;11.18;;;5.28;;
52554;SDS011;38455;52.710;6.502;2024-02-21T13:32:57;10.13;;;5.55;;
52554;SDS011;38455;52.710;6.502;2024-02-21T13:35:23;12.88;;;6.10;;
52554;SDS011;38455;52.710;6.502;2024-02-21T13:37:49;10.77;;;5.80;;
52554;SDS011;38455;52.710;6.502;2024-02-21T13:40:15;12.75;;;6.47;;
52554;SDS011;38455;52.710;6.502;2024-02-21T13:42:41;12.32;;;6.03;;
52554;SDS011;38455;52.710;6.502;2024-02-21T13:45:08;13.40;;;6.10;;
52554;SDS011;38455;52.710;6.502;2024-02-21T13:47:34;13.48;;;6.18;;
52554;SDS011;38455;52.710;6.502;2024-02-21T13:50:02;10.18;;;6.68;;
52554;SDS011;38455;52.710;6.502;2024-02-21T13:52:29;12.15;;;6.40;;
52554;SDS011;38455;52.710;6.502;2024-02-21T13:54:56;16.13;;;6.35;;
52554;SDS011;38455;52.710;6.502;2024-02-21T13:57:22;14.13;;;6.03;;
52554;SDS011;38455;52.710;6.502;2024-02-21T13:59:48;11.23;;;6.05;;
52554;SDS011;38455;52.710;6.502;2024-02-21T14:02:14;9.85;;;5.35;;
52554;SDS011;38455;52.710;6.502;2024-02-21T14:04:40;14.20;;;5.93;;
52554;SDS011;38455;52.710;6.502;2024-02-21T14:07:05;13.07;;;5.57;;
52554;SDS011;38455;52.710;6.502;2024-02-21T14:09:31;10.13;;;5.05;;
52554;SDS011;38455;52.710;6.502;2024-02-21T14:11:58;14.07;;;5.75;;
52554;SDS011;38455;52.710;6.502;2024-02-21T14:14:23;13.88;;;6.05;;
52554;SDS011;38455;52.710;6.502;2024-02-21T14:16:49;14.73;;;6.22;;
52554;SDS011;38455;52.710;6.502;2024-02-21T14:19:15;11.32;;;6.38;;
52554;SDS011;38455;52.710;6.502;2024-02-21T14:21:40;9.15;;;5.15;;
52554;SDS011;38455;52.710;6.502;2024-02-21T14:24:06;10.90;;;5.78;;
52554;SDS011;38455;52.710;6.502;2024-02-21T14:26:32;14.95;;;5.72;;
52554;SDS011;38455;52.710;6.502;2024-02-21T14:28:58;13.00;;;6.32;;
52554;SDS011;38455;52.710;6.502;2024-02-21T14:31:25;12.85;;;6.63;;
52554;SDS011;38455;52.710;6.502;2024-02-21T14:33:51;14.63;;;5.50;;
52554;SDS011;38455;52.710;6.502;2024-02-21T14:36:17;19.13;;;6.50;;